Time;durP1;ratioP1;P1;durP2;ratioP2;P2;SDS_P1;SDS_P2;PMS_P1;PMS_P2;Temp;Humidity;BMP_temperature;BMP_pressure;BME280_temperature;BME280_humidity;BME280_pressure;Samples;Min_cycle;Max_cycle;Signal;HPM_P1;HPM_P2
2024/02/20 00:01:34;;;;;;;;;;;8.80;94.10;;;;;;4971386;28;19968;-80
2024/02/20 00:03:59;;;;;;;;;;;9.30;94.30;;;;;;4972044;28;19938;-80
2024/02/20 00:06:25;;;;;;;;;;;8.70;94.20;;;;;;4971966;28;19949;-80
2024/02/20 00:08:50;;;;;;;;;;;8.70;94.40;;;;;;4971489;28;19910;-80
2024/02/20 00:11:16;;;;;;;;;;;8.60;93.80;;;;;;4971594;28;19918;-80
2024/02/20 00:13:41;;;;;;;;;;;9.70;94.30;;;;;;4972024;28;20320;-80
2024/02/20 00:16:07;;;;;;;;;;;8.60;94.00;;;;;;4972159;28;20008;-80
2024/02/20 00:18:32;;;;;;;;;;;8.60;93.80;;;;;;4970893;28;19956;-78
2024/02/20 00:20:58;;;;;;;;;;;8.70;93.70;;;;;;4971397;28;20306;-78
2024/02/20 00:23:24;;;;;;;;;;;8.70;93.70;;;;;;4971557;28;19906;-78
2024/02/20 00:25:50;;;;;;;;;;;8.70;94.00;;;;;;4972029;28;20006;-78
2024/02/20 00:28:16;;;;;;;;;;;8.70;93.80;;;;;;4971146;28;19921;-78
2024/02/20 00:30:42;;;;;;;;;;;9.30;93.60;;;;;;4971460;28;19920;-78
2024/02/20 00:33:07;;;;;;;;;;;8.70;92.90;;;;;;4971646;28;19910;-80
2024/02/20 00:35:33;;;;;;;;;;;10.30;94.00;;;;;;4986386;28;19906;-79
2024/02/20 00:37:59;;;;;;;;;;;8.70;93.20;;;;;;4971178;28;19906;-79
2024/02/20 00:40:25;;;;;;;;;;;8.80;93.50;;;;;;4970722;28;19906;-79
2024/02/20 00:42:50;;;;;;;;;;;9.90;94.00;;;;;;4971025;28;19925;-79
2024/02/20 00:45:16;;;;;;;;;;;8.80;93.30;;;;;;4971167;28;19921;-79
2024/02/20 00:47:42;;;;;;;;;;;8.80;93.00;;;;;;4971231;28;19910;-79
2024/02/20 00:50:08;;;;;;;;;;;8.80;93.30;;;;;;4970361;28;19921;-79
2024/02/20 00:52:34;;;;;;;;;;;8.90;92.80;;;;;;4969628;28;19941;-79
2024/02/20 00:55:00;;;;;;;;;;;8.90;93.30;;;;;;4971057;28;19945;-79
2024/02/20 00:57:26;;;;;;;;;;;8.80;93.10;;;;;;4988554;28;19910;-79
2024/02/20 00:59:52;;;;;;;;;;;8.80;93.30;;;;;;4970838;28;19971;-79
2024/02/20 01:02:18;;;;;;;;;;;9.80;93.80;;;;;;4971037;28;19906;-78
2024/02/20 01:04:43;;;;;;;;;;;8.80;93.70;;;;;;4970869;28;19906;-79
2024/02/20 01:07:10;;;;;;;;;;;8.80;93.90;;;;;;4970579;28;19913;-78
2024/02/20 01:09:35;;;;;;;;;;;8.70;94.00;;;;;;4970648;28;19910;-79
2024/02/20 01:12:01;;;;;;;;;;;8.70;93.90;;;;;;4970221;28;19910;-79
2024/02/20 01:14:27;;;;;;;;;;;8.70;94.40;;;;;;4970309;28;19916;-78
2024/02/20 01:16:52;;;;;;;;;;;8.60;94.90;;;;;;4971093;28;20383;-78
2024/02/20 01:19:18;;;;;;;;;;;8.80;94.80;;;;;;4970673;28;19941;-78
2024/02/20 01:21:43;;;;;;;;;;;8.70;95.00;;;;;;4969958;28;19906;-78
2024/02/20 01:24:08;;;;;;;;;;;8.70;95.10;;;;;;4970828;28;19953;-79
2024/02/20 01:26:34;;;;;;;;;;;8.70;95.30;;;;;;4970503;28;19985;-79
2024/02/20 01:28:59;;;;;;;;;;;8.70;95.20;;;;;;4970371;28;19914;-79
2024/02/20 01:31:25;;;;;;;;;;;8.70;95.70;;;;;;4969962;28;19918;-79
2024/02/20 01:33:51;;;;;;;;;;;9.20;96.30;;;;;;4970432;28;20009;-79
2024/02/20 01:36:18;;;;;;;;;;;8.60;95.90;;;;;;4970020;28;19914;-79
2024/02/20 01:38:44;;;;;;;;;;;8.70;95.90;;;;;;4970648;28;19989;-79
2024/02/20 01:41:10;;;;;;;;;;;8.70;96.00;;;;;;4969805;28;20017;-79
2024/02/20 01:43:36;;;;;;;;;;;8.60;95.80;;;;;;4970352;28;19906;-79
2024/02/20 01:46:01;;;;;;;;;;;8.60;96.00;;;;;;4969849;28;20487;-79
2024/02/20 01:48:27;;;;;;;;;;;8.60;96.10;;;;;;4970084;28;19910;-79
2024/02/20 01:50:52;;;;;;;;;;;8.60;96.50;;;;;;4969376;28;19949;-79
2024/02/20 01:53:18;;;;;;;;;;;10.30;97.00;;;;;;4984070;28;19917;-79
2024/02/20 01:55:44;;;;;;;;;;;8.50;96.40;;;;;;4970393;28;19917;-79
2024/02/20 01:58:09;;;;;;;;;;;8.50;96.60;;;;;;4970221;28;19997;-79
2024/02/20 02:00:35;;;;;;;;;;;8.50;96.90;;;;;;4970810;28;19910;-79
2024/02/20 02:03:01;;;;;;;;;;;8.50;96.90;;;;;;4974331;28;19918;-79
2024/02/20 02:05:27;;;;;;;;;;;8.50;96.90;;;;;;4973957;28;20011;-79
2024/02/20 02:07:54;;;;;;;;;;;8.90;97.30;;;;;;4974171;28;19918;-79
2024/02/20 02:10:19;;;;;;;;;;;8.50;96.80;;;;;;4972735;28;19918;-79
2024/02/20 02:12:45;;;;;;;;;;;8.60;96.90;;;;;;4989320;28;19968;-79
2024/02/20 02:15:10;;;;;;;;;;;8.50;96.60;;;;;;4972938;28;20298;-79
2024/02/20 02:17:36;;;;;;;;;;;8.40;96.50;;;;;;4974121;28;19929;-79
2024/02/20 02:20:02;;;;;;;;;;;8.40;96.60;;;;;;4973833;28;19938;-79
2024/02/20 02:22:27;;;;;;;;;;;8.40;96.90;;;;;;4973585;28;20086;-79
2024/02/20 02:24:52;;;;;;;;;;;8.30;97.40;;;;;;4972855;28;20379;-79
2024/02/20 02:27:18;;;;;;;;;;;8.40;97.50;;;;;;4974346;28;20056;-79
2024/02/20 02:29:43;;;;;;;;;;;8.40;97.60;;;;;;4973297;28;19917;-79
2024/02/20 02:32:09;;;;;;;;;;;8.40;97.80;;;;;;4973729;28;19910;-79
2024/02/20 02:34:35;;;;;;;;;;;9.00;98.10;;;;;;4973438;28;20492;-79
2024/02/20 02:37:00;;;;;;;;;;;8.40;97.50;;;;;;4973704;28;19910;-80
2024/02/20 02:39:26;;;;;;;;;;;8.40;98.00;;;;;;4973692;28;19906;-79
2024/02/20 02:41:52;;;;;;;;;;;8.40;98.20;;;;;;4973297;28;19996;-79
2024/02/20 02:44:17;;;;;;;;;;;9.50;98.20;;;;;;4972571;28;19956;-79
2024/02/20 02:46:43;;;;;;;;;;;9.60;98.50;;;;;;4973338;28;19910;-79
2024/02/20 02:49:09;;;;;;;;;;;;;;;;;;4973695;28;19941;-79
2024/02/20 02:51:34;;;;;;;;;;;8.40;97.70;;;;;;4978704;28;19924;-79
2024/02/20 02:54:00;;;;;;;;;;;8.60;98.10;;;;;;4979382;28;19910;-79
2024/02/20 02:56:26;;;;;;;;;;;9.70;99.30;;;;;;4973034;28;20371;-79
2024/02/20 02:58:51;;;;;;;;;;;9.60;98.90;;;;;;4973321;28;19965;-79
2024/02/20 03:01:17;;;;;;;;;;;8.20;98.40;;;;;;4973025;28;19906;-79
2024/02/20 03:03:42;;;;;;;;;;;8.30;98.40;;;;;;4988581;28;19910;-79
2024/02/20 03:06:08;;;;;;;;;;;8.30;98.60;;;;;;4973066;28;19906;-79
2024/02/20 03:08:34;;;;;;;;;;;8.20;98.70;;;;;;4972811;28;19905;-79
2024/02/20 03:11:00;;;;;;;;;;;8.20;99.70;;;;;;4972580;28;19961;-78
2024/02/20 03:13:26;;;;;;;;;;;8.20;98.90;;;;;;4971893;28;20397;-79
2024/02/20 03:15:51;;;;;;;;;;;12.30;99.90;;;;;;4972705;28;19910;-79
2024/02/20 03:18:17;;;;;;;;;;;8.10;99.30;;;;;;4987666;28;19965;-79
2024/02/20 03:20:42;;;;;;;;;;;8.20;99.10;;;;;;4972365;28;20351;-79
2024/02/20 03:23:08;;;;;;;;;;;8.10;99.70;;;;;;4972385;28;19988;-79
2024/02/20 03:25:34;;;;;;;;;;;8.10;99.50;;;;;;4972943;28;19913;-79
2024/02/20 03:28:01;;;;;;;;;;;8.10;99.50;;;;;;4973029;28;19910;-79
2024/02/20 03:30:28;;;;;;;;;;;8.10;99.90;;;;;;4972163;28;20299;-78
2024/02/20 03:32:54;;;;;;;;;;;8.20;99.70;;;;;;4972654;28;20153;-79
2024/02/20 03:35:22;;;;;;;;;;;8.10;99.90;;;;;;4972824;28;19928;-79
2024/02/20 03:37:48;;;;;;;;;;;8.10;99.90;;;;;;4972222;28;19913;-78
2024/02/20 03:40:14;;;;;;;;;;;8.10;99.90;;;;;;4968361;28;19933;-79
2024/02/20 03:42:40;;;;;;;;;;;8.10;99.90;;;;;;4972229;28;19910;-78
2024/02/20 03:45:06;;;;;;;;;;;8.10;99.90;;;;;;4971987;28;20440;-79
2024/02/20 03:47:31;;;;;;;;;;;8.10;99.40;;;;;;4972058;28;19917;-79
2024/02/20 03:49:57;;;;;;;;;;;8.20;99.80;;;;;;4972073;28;20342;-78
2024/02/20 03:52:22;;;;;;;;;;;9.10;99.90;;;;;;4971975;28;19914;-79
2024/02/20 03:54:48;;;;;;;;;;;8.20;99.50;;;;;;4971939;28;19906;-79
2024/02/20 03:57:14;;;;;;;;;;;8.20;99.80;;;;;;4971981;28;20082;-78
2024/02/20 03:59:39;;;;;;;;;;;8.20;99.90;;;;;;4972145;28;19956;-79
2024/02/20 04:02:05;;;;;;;;;;;8.10;99.80;;;;;;4972478;28;19910;-79
2024/02/20 04:04:30;;;;;;;;;;;8.20;99.80;;;;;;4971891;28;19910;-79
2024/02/20 04:06:56;;;;;;;;;;;9.20;99.90;;;;;;4972023;28;20327;-79
2024/02/20 04:09:21;;;;;;;;;;;9.10;99.90;;;;;;4971303;28;19914;-79
2024/02/20 04:11:47;;;;;;;;;;;8.10;99.90;;;;;;4986556;28;19925;-79
2024/02/20 04:14:12;;;;;;;;;;;8.10;99.90;;;;;;4971092;28;19946;-79
2024/02/20 04:16:38;;;;;;;;;;;6.70;99.90;;;;;;4971762;28;19910;-79
2024/02/20 04:19:03;;;;;;;;;;;8.40;99.90;;;;;;4972038;28;19938;-79
2024/02/20 04:21:29;;;;;;;;;;;8.10;99.90;;;;;;4971235;28;20395;-78
2024/02/20 04:23:55;;;;;;;;;;;8.10;99.90;;;;;;4985860;28;19906;-79
2024/02/20 04:26:20;;;;;;;;;;;8.00;99.90;;;;;;4971223;28;19916;-79
2024/02/20 04:28:46;;;;;;;;;;;7.90;99.90;;;;;;4986503;28;19993;-79
2024/02/20 04:31:12;;;;;;;;;;;;;;;;;;4971394;28;19918;-79
2024/02/20 04:33:37;;;;;;;;;;;7.90;99.90;;;;;;4971346;28;20427;-78
2024/02/20 04:36:03;;;;;;;;;;;7.90;99.90;;;;;;4971111;28;20290;-79
2024/02/20 04:38:29;;;;;;;;;;;8.00;99.90;;;;;;4970851;28;19916;-79
2024/02/20 04:40:54;;;;;;;;;;;9.80;99.90;;;;;;4970968;28;19914;-79
2024/02/20 04:43:20;;;;;;;;;;;8.00;99.90;;;;;;4971427;28;19980;-79
2024/02/20 04:45:55;;;;;;;;;;;7.80;99.90;;;;;;5109296;27;20307;-79
2024/02/20 04:48:20;;;;;;;;;;;8.10;99.90;;;;;;5095850;28;19916;-80
2024/02/20 04:50:45;;;;;;;;;;;8.10;99.90;;;;;;5084139;28;19919;-80
2024/02/20 04:53:11;;;;;;;;;;;8.10;99.90;;;;;;5086128;28;19908;-80
2024/02/20 04:55:37;;;;;;;;;;;8.20;99.90;;;;;;5086612;28;19921;-80
2024/02/20 04:58:02;;;;;;;;;;;8.20;99.90;;;;;;5087041;28;19982;-80
2024/02/20 05:00:28;;;;;;;;;;;8.20;99.90;;;;;;5086251;28;19919;-79
2024/02/20 05:02:53;;;;;;;;;;;8.20;99.90;;;;;;5086617;28;19935;-79
2024/02/20 05:05:19;;;;;;;;;;;8.20;99.90;;;;;;5086030;28;20003;-80
2024/02/20 05:07:44;;;;;;;;;;;8.20;99.90;;;;;;5086244;28;19970;-80
2024/02/20 05:10:10;;;;;;;;;;;8.20;99.90;;;;;;5085609;28;19908;-80
2024/02/20 05:12:42;;;;;;;;;;;8.20;99.90;;;;;;5086044;28;19912;-80
2024/02/20 05:15:08;;;;;;;;;;;8.20;99.90;;;;;;5086282;28;19916;-80
2024/02/20 05:17:33;;;;;;;;;;;8.20;99.90;;;;;;5086523;28;19956;-80
2024/02/20 05:19:59;;;;;;;;;;;8.20;99.90;;;;;;5085484;28;19940;-80
2024/02/20 05:22:27;;;;;;;;;;;8.20;99.90;;;;;;5085562;28;20353;-80
2024/02/20 05:24:53;;;;;;;;;;;8.30;99.90;;;;;;5118155;27;19912;-80
2024/02/20 05:27:18;;;;;;;;;;;8.30;99.90;;;;;;5086481;28;20319;-79
2024/02/20 05:29:44;;;;;;;;;;;7.80;99.90;;;;;;5085690;28;19945;-80
2024/02/20 05:32:09;;;;;;;;;;;8.40;99.90;;;;;;5085820;28;20392;-80
2024/02/20 05:34:35;;;;;;;;;;;8.40;99.90;;;;;;5085660;28;19928;-79
2024/02/20 05:37:01;;;;;;;;;;;8.40;99.90;;;;;;5084604;28;20373;-80
2024/02/20 05:39:27;;;;;;;;;;;8.40;99.80;;;;;;5085334;28;19916;-80
2024/02/20 05:41:52;;;;;;;;;;;8.40;99.90;;;;;;5085534;28;19913;-80
2024/02/20 05:44:18;;;;;;;;;;;8.40;99.90;;;;;;5085088;28;20462;-80
2024/02/20 05:46:43;;;;;;;;;;;8.40;99.90;;;;;;5085369;28;19932;-80
2024/02/20 05:49:09;;;;;;;;;;;8.30;99.90;;;;;;5085454;28;19913;-80
2024/02/20 05:51:34;;;;;;;;;;;8.30;99.90;;;;;;5085173;28;19916;-80
2024/02/20 05:54:00;;;;;;;;;;;8.20;99.90;;;;;;5085239;28;20061;-80
2024/02/20 05:56:25;;;;;;;;;;;8.20;99.90;;;;;;5076477;28;19912;-80
2024/02/20 05:58:51;;;;;;;;;;;8.20;99.90;;;;;;5071784;28;19908;-80
2024/02/20 06:01:17;;;;;;;;;;;8.20;99.90;;;;;;5071448;28;19909;-80
2024/02/20 06:03:43;;;;;;;;;;;8.20;99.90;;;;;;5071264;28;19908;-80
2024/02/20 06:06:09;;;;;;;;;;;8.20;99.90;;;;;;5072202;28;19909;-80
2024/02/20 06:08:35;;;;;;;;;;;8.20;99.90;;;;;;5070348;28;20296;-79
2024/02/20 06:11:00;;;;;;;;;;;8.10;99.90;;;;;;5070143;28;19912;-80
2024/02/20 06:13:26;;;;;;;;;;;8.20;99.90;;;;;;5071191;28;19908;-79
2024/02/20 06:15:51;;;;;;;;;;;8.20;99.90;;;;;;5071920;28;19955;-80
2024/02/20 06:18:17;;;;;;;;;;;8.20;99.90;;;;;;5071479;28;19912;-80
2024/02/20 06:20:45;;;;;;;;;;;8.20;99.90;;;;;;5071366;28;19954;-79
2024/02/20 06:23:11;;;;;;;;;;;8.10;99.90;;;;;;5072251;28;19912;-80
2024/02/20 06:25:36;;;;;;;;;;;8.10;99.90;;;;;;5071491;28;20289;-80
2024/02/20 06:28:02;;;;;;;;;;;8.10;99.90;;;;;;5071428;28;19962;-80
2024/02/20 06:30:28;;;;;;;;;;;8.10;99.90;;;;;;5071082;28;20027;-80
2024/02/20 06:32:53;;;;;;;;;;;8.10;99.90;;;;;;5104112;28;19916;-80
2024/02/20 06:35:19;;;;;;;;;;;8.10;99.90;;;;;;5070844;28;19916;-80
2024/02/20 06:37:45;;;;;;;;;;;;;;;;;;5070628;28;19916;-80
2024/02/20 06:40:10;;;;;;;;;;;8.10;99.90;;;;;;5103365;28;19913;-80
2024/02/20 06:42:36;;;;;;;;;;;8.10;99.90;;;;;;5071145;28;19913;-80
2024/02/20 06:45:02;;;;;;;;;;;8.10;99.90;;;;;;5070687;28;19925;-80
2024/02/20 06:47:27;;;;;;;;;;;8.10;99.90;;;;;;5070777;28;19995;-80
2024/02/20 06:49:53;;;;;;;;;;;8.10;99.90;;;;;;5070483;28;19913;-80
2024/02/20 06:52:19;;;;;;;;;;;8.10;99.90;;;;;;5078055;28;19916;-80
2024/02/20 06:54:44;;;;;;;;;;;8.10;99.90;;;;;;5071033;28;19964;-80
2024/02/20 06:57:10;;;;;;;;;;;8.10;99.90;;;;;;5070430;28;20625;-80
2024/02/20 06:59:36;;;;;;;;;;;7.80;99.90;;;;;;5070748;28;20297;-80
2024/02/20 07:02:02;;;;;;;;;;;8.20;99.90;;;;;;5071388;28;19932;-80
2024/02/20 07:04:27;;;;;;;;;;;8.10;99.90;;;;;;5070185;28;19960;-80
2024/02/20 07:06:52;;;;;;;;;;;8.10;99.90;;;;;;5070208;28;19908;-80
2024/02/20 07:09:18;;;;;;;;;;;8.10;99.90;;;;;;5070230;28;19932;-80
2024/02/20 07:11:46;;;;;;;;;;;8.10;99.90;;;;;;5070025;28;19942;-80
2024/02/20 07:14:12;;;;;;;;;;;8.10;99.90;;;;;;5064303;28;19920;-88
2024/02/20 07:16:38;;;;;;;;;;;8.10;99.90;;;;;;5066375;28;19931;-85
2024/02/20 07:19:03;;;;;;;;;;;8.10;99.90;;;;;;5064885;28;19909;-84
2024/02/20 07:21:29;;;;;;;;;;;8.10;99.90;;;;;;5069671;28;19912;-82
2024/02/20 07:23:54;;;;;;;;;;;8.00;99.90;;;;;;5067046;28;20414;-82
2024/02/20 07:26:24;;;;;;;;;;;8.90;99.90;;;;;;5063301;28;20003;-81
2024/02/20 07:28:49;;;;;;;;;;;8.20;99.90;;;;;;5068710;28;19908;-81
2024/02/20 07:31:20;;;;;;;;;;;8.40;99.90;;;;;;5102099;28;19949;-81
2024/02/20 07:33:45;;;;;;;;;;;9.10;99.90;;;;;;5068377;28;19927;-81
2024/02/20 07:36:11;;;;;;;;;;;10.00;99.10;;;;;;5062277;28;20483;-79
2024/02/20 07:38:36;;;;;;;;;;;10.50;96.70;;;;;;5067943;28;19908;-79
2024/02/20 07:41:03;;;;;;;;;;;10.70;95.80;;;;;;5068837;28;19920;-79
2024/02/20 07:43:29;;;;;;;;;;;11.00;91.60;;;;;;5100630;28;19920;-80
2024/02/20 07:45:55;;;;;;;;;;;11.20;88.80;;;;;;5063999;28;19928;-81
2024/02/20 07:48:21;;;;;;;;;;;11.30;89.30;;;;;;5063910;28;20404;-80
2024/02/20 07:50:46;;;;;;;;;;;11.20;89.80;;;;;;5069357;28;19909;-80
2024/02/20 07:53:12;;;;;;;;;;;11.10;89.80;;;;;;5068519;28;20307;-80
2024/02/20 07:55:43;;;;;;;;;;;11.00;90.80;;;;;;5066898;28;20007;-80
2024/02/20 07:58:09;;;;;;;;;;;10.90;90.30;;;;;;5062644;28;19912;-80
2024/02/20 08:00:36;;;;;;;;;;;10.60;90.30;;;;;;5067479;28;20420;-80
2024/02/20 08:03:01;;;;;;;;;;;10.50;90.40;;;;;;5067537;28;19999;-74
2024/02/20 08:05:27;;;;;;;;;;;10.50;90.80;;;;;;5067637;28;20007;-81
2024/02/20 08:07:53;;;;;;;;;;;10.50;90.90;;;;;;5057647;28;19967;-80
2024/02/20 08:10:19;;;;;;;;;;;10.40;92.00;;;;;;5068708;28;20368;-80
2024/02/20 08:12:44;;;;;;;;;;;10.20;91.60;;;;;;5067442;28;19963;-80
2024/02/20 08:15:10;;;;;;;;;;;10.00;91.80;;;;;;5067777;28;20416;-80
2024/02/20 08:17:36;;;;;;;;;;;10.00;92.40;;;;;;5060379;28;19913;-80
2024/02/20 08:20:04;;;;;;;;;;;10.00;92.60;;;;;;5067578;28;20331;-79
2024/02/20 08:22:29;;;;;;;;;;;10.20;93.10;;;;;;5068970;28;19966;-81
2024/02/20 08:24:56;;;;;;;;;;;10.20;92.50;;;;;;5065970;28;20411;-79
2024/02/20 08:27:22;;;;;;;;;;;10.20;92.10;;;;;;5060416;28;20273;-80
2024/02/20 08:29:48;;;;;;;;;;;10.30;91.60;;;;;;5065640;28;19934;-78
2024/02/20 08:32:14;;;;;;;;;;;10.40;91.80;;;;;;5068673;28;19952;-79
2024/02/20 08:34:40;;;;;;;;;;;10.50;91.60;;;;;;5066585;28;19956;-79
2024/02/20 08:37:05;;;;;;;;;;;10.50;90.80;;;;;;5059188;28;19917;-78
2024/02/20 08:39:31;;;;;;;;;;;10.70;91.30;;;;;;5066794;28;19990;-78
2024/02/20 08:41:56;;;;;;;;;;;10.90;90.80;;;;;;5068441;28;19912;-80
2024/02/20 08:44:24;;;;;;;;;;;10.90;88.70;;;;;;5072482;28;19920;-81
2024/02/20 08:46:49;;;;;;;;;;;11.10;90.00;;;;;;5060262;28;19916;-80
2024/02/20 08:49:15;;;;;;;;;;;11.10;89.30;;;;;;5066131;28;20396;-78
2024/02/20 08:51:42;;;;;;;;;;;11.20;87.70;;;;;;5067735;28;19913;-78
2024/02/20 08:54:07;;;;;;;;;;;11.20;87.60;;;;;;5067576;28;19999;-78
2024/02/20 08:56:33;;;;;;;;;;;11.30;88.70;;;;;;5091630;28;19991;-79
2024/02/20 08:58:58;;;;;;;;;;;11.50;87.10;;;;;;5065810;28;19969;-78
2024/02/20 09:01:27;;;;;;;;;;;11.70;86.70;;;;;;5067193;28;20332;-79
2024/02/20 09:03:56;;;;;;;;;;;12.00;85.50;;;;;;5067136;28;19912;-78
2024/02/20 09:06:21;;;;;;;;;;;12.20;86.40;;;;;;5059086;28;19956;-78
2024/02/20 09:08:47;;;;;;;;;;;12.60;82.80;;;;;;5067098;28;19947;-78
2024/02/20 09:11:12;;;;;;;;;;;12.90;81.50;;;;;;5066584;28;20366;-79
2024/02/20 09:13:38;;;;;;;;;;;12.60;79.20;;;;;;5066945;28;20019;-80
2024/02/20 09:16:04;;;;;;;;;;;12.20;79.10;;;;;;5060656;28;20427;-81
2024/02/20 09:18:36;;;;;;;;;;;12.00;79.80;;;;;;5066296;28;19912;-81
2024/02/20 09:21:02;;;;;;;;;;;11.90;80.10;;;;;;5067066;28;19917;-81
2024/02/20 09:23:28;;;;;;;;;;;11.80;80.20;;;;;;5067334;28;19909;-83
2024/02/20 09:25:53;;;;;;;;;;;11.70;80.00;;;;;;5061424;28;19939;-80
2024/02/20 09:28:19;;;;;;;;;;;11.70;80.80;;;;;;5064358;28;19908;-82
2024/02/20 09:30:44;;;;;;;;;;;11.60;79.70;;;;;;5068336;28;19940;-82
2024/02/20 09:33:12;;;;;;;;;;;11.60;79.70;;;;;;5104012;28;19922;-82
2024/02/20 09:35:38;;;;;;;;;;;11.60;81.30;;;;;;5068509;28;19923;-82
2024/02/20 09:38:03;;;;;;;;;;;11.70;80.80;;;;;;5065912;28;20166;-82
2024/02/20 09:40:29;;;;;;;;;;;11.70;80.00;;;;;;5070658;28;19934;-81
2024/02/20 09:42:58;;;;;;;;;;;11.60;80.00;;;;;;5070726;28;20022;-81
2024/02/20 09:45:25;;;;;;;;;;;11.60;80.50;;;;;;5069494;28;20198;-82
2024/02/20 09:47:50;;;;;;;;;;;11.40;78.90;;;;;;5062886;28;20009;-79
2024/02/20 09:50:16;;;;;;;;;;;11.20;80.50;;;;;;5067761;28;19997;-81
2024/02/20 09:52:47;;;;;;;;;;;11.10;80.30;;;;;;5070838;28;19922;-81
2024/02/20 09:55:14;;;;;;;;;;;11.00;80.60;;;;;;5069130;28;19978;-80
2024/02/20 09:57:39;;;;;;;;;;;10.80;80.30;;;;;;5063022;28;19909;-81
2024/02/20 10:00:06;;;;;;;;;;;10.80;80.60;;;;;;5069680;28;20011;-80
2024/02/20 10:02:32;;;;;;;;;;;10.80;80.90;;;;;;5068181;28;19922;-79
2024/02/20 10:04:58;;;;;;;;;;;10.80;80.60;;;;;;5071709;28;20357;-80
2024/02/20 10:07:24;;;;;;;;;;;10.90;80.70;;;;;;5057968;28;20240;-79
2024/02/20 10:09:50;;;;;;;;;;;10.80;80.30;;;;;;5065810;28;19915;-79
2024/02/20 10:12:22;;;;;;;;;;;10.70;80.70;;;;;;5072591;28;19913;-79
2024/02/20 10:14:47;;;;;;;;;;;10.70;80.20;;;;;;5068399;28;20007;-80
2024/02/20 10:17:13;;;;;;;;;;;;;;;;;;5063273;28;19999;-79
2024/02/20 10:19:39;;;;;;;;;;;10.90;80.40;;;;;;5069647;28;19950;-80
2024/02/20 10:22:04;;;;;;;;;;;10.80;78.00;;;;;;5058237;28;20292;-80
2024/02/20 10:24:30;;;;;;;;;;;11.40;80.10;;;;;;5068749;28;19921;-79
2024/02/20 10:26:56;;;;;;;;;;;11.20;79.80;;;;;;5060843;28;20330;-79
2024/02/20 10:29:21;;;;;;;;;;;11.20;78.80;;;;;;5070310;28;20369;-79
2024/02/20 10:31:47;;;;;;;;;;;11.50;77.70;;;;;;5102434;28;19920;-79
2024/02/20 10:34:18;;;;;;;;;;;11.70;77.50;;;;;;5070219;28;19942;-81
2024/02/20 10:36:43;;;;;;;;;;;11.90;76.90;;;;;;5060199;28;19919;-80
2024/02/20 10:39:12;;;;;;;;;;;11.90;75.50;;;;;;5068735;28;20293;-80
2024/02/20 10:41:39;;;;;;;;;;;11.80;74.60;;;;;;5074226;28;19912;-82
2024/02/20 10:44:04;;;;;;;;;;;11.70;74.30;;;;;;5074438;28;19916;-77
2024/02/20 10:46:37;;;;;;;;;;;11.60;75.50;;;;;;5059331;28;19920;-77
2024/02/20 10:49:06;;;;;;;;;;;11.50;76.00;;;;;;5068708;28;19966;-79
2024/02/20 10:51:32;;;;;;;;;;;11.40;75.70;;;;;;5069140;28;20292;-80
2024/02/20 10:53:58;;;;;;;;;;;11.30;76.50;;;;;;5070749;28;22161;-77
2024/02/20 10:56:25;;;;;;;;;;;9.90;76.50;;;;;;5059509;28;20436;-79
2024/02/20 10:58:52;;;;;;;;;;;11.10;77.80;;;;;;5071812;28;19912;-78
2024/02/20 11:01:17;;;;;;;;;;;11.00;77.40;;;;;;5060977;28;20267;-78
2024/02/20 11:03:44;;;;;;;;;;;10.80;77.10;;;;;;5069973;28;19957;-78
2024/02/20 11:06:10;;;;;;;;;;;11.50;78.90;;;;;;5062912;28;20522;-78
2024/02/20 11:08:35;;;;;;;;;;;11.10;78.50;;;;;;5063707;28;19938;-78
2024/02/20 11:11:14;;;;;;;;;;;11.40;78.40;;;;;;5067682;28;19917;-80
2024/02/20 11:13:40;;;;;;;;;;;12.30;76.60;;;;;;5070678;28;19912;-80
2024/02/20 11:16:15;;;;;;;;;;;12.60;76.00;;;;;;5062897;28;19917;-80
2024/02/20 11:18:53;;;;;;;;;;;14.50;70.40;;;;;;5081183;28;19908;-81
2024/02/20 11:21:28;;;;;;;;;;;15.50;68.60;;;;;;5071476;28;19916;-80
2024/02/20 11:23:55;;;;;;;;;;;19.30;67.80;;;;;;5069708;28;19912;-81
2024/02/20 11:26:27;;;;;;;;;;;25.80;54.60;;;;;;5059632;28;20441;-80
2024/02/20 11:28:53;;;;;;;;;;;26.30;52.40;;;;;;5069077;28;19912;-80
2024/02/20 11:31:28;;;;;;;;;;;25.70;45.70;;;;;;5068437;28;19912;-81
2024/02/20 11:33:54;;;;;;;;;;;22.70;46.00;;;;;;5061969;28;20373;-81
2024/02/20 11:36:19;;;;;;;;;;;20.10;51.90;;;;;;5060226;28;19920;-82
2024/02/20 11:38:45;;;;;;;;;;;19.40;53.20;;;;;;5080389;28;19961;-80
2024/02/20 11:41:10;;;;;;;;;;;17.10;56.70;;;;;;5065178;28;19917;-81
2024/02/20 11:43:36;;;;;;;;;;;16.20;58.70;;;;;;5069184;28;19932;-81
2024/02/20 11:46:02;;;;;;;;;;;15.50;59.80;;;;;;5063240;28;20460;-80
2024/02/20 11:48:28;;;;;;;;;;;14.60;62.50;;;;;;5064774;28;19912;-81
2024/02/20 11:50:55;;;;;;;;;;;14.20;63.40;;;;;;5074342;28;19912;-80
2024/02/20 11:53:21;;;;;;;;;;;13.70;64.10;;;;;;5067893;28;19921;-81
2024/02/20 11:55:53;;;;;;;;;;;13.60;64.80;;;;;;5065756;28;20117;-80
2024/02/20 11:58:20;;;;;;;;;;;13.90;64.40;;;;;;5063871;28;19913;-81
2024/02/20 12:00:46;;;;;;;;;;;13.90;63.80;;;;;;5069104;28;20296;-80
2024/02/20 12:03:11;;;;;;;;;;;13.80;62.70;;;;;;5064137;28;19916;-80
2024/02/20 12:05:40;;;;;;;;;;;18.10;66.20;;;;;;5066084;28;19947;-81
2024/02/20 12:08:18;;;;;;;;;;;14.50;63.70;;;;;;5053577;28;19919;-80
2024/02/20 12:10:44;;;;;;;;;;;16.20;62.40;;;;;;5062213;28;19912;-80
2024/02/20 12:13:13;;;;;;;;;;;17.80;60.00;;;;;;5067937;28;20454;-80
2024/02/20 12:15:39;;;;;;;;;;;18.10;56.30;;;;;;5065571;28;19967;-81
2024/02/20 12:18:04;;;;;;;;;;;18.80;54.90;;;;;;5062205;28;19951;-80
2024/02/20 12:20:30;;;;;;;;;;;18.60;52.80;;;;;;5069314;28;20318;-81
2024/02/20 12:23:01;;;;;;;;;;;18.30;55.00;;;;;;5061975;28;20044;-80
2024/02/20 12:25:27;;;;;;;;;;;17.80;55.40;;;;;;5070978;28;20015;-81
2024/02/20 12:27:53;;;;;;;;;;;16.90;55.40;;;;;;5063352;28;20011;-81
2024/02/20 12:30:18;;;;;;;;;;;16.00;58.00;;;;;;5068405;28;19909;-80
2024/02/20 12:32:44;;;;;;;;;;;15.50;58.70;;;;;;5065856;28;19908;-80
2024/02/20 12:35:10;;;;;;;;;;;15.30;59.50;;;;;;5056567;28;19971;-80
2024/02/20 12:37:35;;;;;;;;;;;14.90;59.50;;;;;;5056764;28;20013;-80
2024/02/20 12:40:01;;;;;;;;;;;14.80;60.50;;;;;;5047376;28;20366;-80
2024/02/20 12:42:26;;;;;;;;;;;14.90;59.70;;;;;;5060903;28;19958;-80
2024/02/20 12:44:52;;;;;;;;;;;14.30;60.90;;;;;;5068061;28;20404;-80
2024/02/20 12:47:18;;;;;;;;;;;;;;;;;;5057788;28;19920;-80
2024/02/20 12:49:43;;;;;;;;;;;18.90;62.90;;;;;;5069327;28;19912;-81
2024/02/20 12:52:09;;;;;;;;;;;16.30;60.40;;;;;;5073179;28;20292;-81
2024/02/20 12:54:35;;;;;;;;;;;16.80;57.00;;;;;;5063143;28;19963;-81
2024/02/20 12:57:00;;;;;;;;;;;16.60;56.40;;;;;;5089763;28;20422;-81
2024/02/20 12:59:29;;;;;;;;;;;16.10;57.20;;;;;;5067960;28;19958;-83
2024/02/20 13:01:54;;;;;;;;;;;15.50;56.20;;;;;;5068704;28;20271;-83
2024/02/20 13:04:20;;;;;;;;;;;15.20;56.90;;;;;;5067531;28;20288;-85
2024/02/20 13:06:45;;;;;;;;;;;15.20;57.10;;;;;;5061233;28;19974;-82
2024/02/20 13:09:11;;;;;;;;;;;15.10;57.00;;;;;;5070749;28;19908;-82
2024/02/20 13:11:36;;;;;;;;;;;15.80;56.60;;;;;;5078049;28;19908;-96
2024/02/20 13:14:02;;;;;;;;;;;16.50;56.30;;;;;;5071118;28;19943;-87
2024/02/20 13:16:27;;;;;;;;;;;16.60;55.60;;;;;;5063294;28;20397;-82
2024/02/20 13:18:53;;;;;;;;;;;17.00;53.90;;;;;;5070167;28;19916;-83
2024/02/20 13:21:19;;;;;;;;;;;17.00;53.50;;;;;;5072960;28;19947;-83
2024/02/20 13:23:44;;;;;;;;;;;16.90;52.80;;;;;;5071002;28;19916;-84
2024/02/20 13:26:10;;;;;;;;;;;16.80;53.80;;;;;;5067686;28;19981;-83
2024/02/20 13:28:35;;;;;;;;;;;16.60;53.30;;;;;;5067352;28;19956;-83
2024/02/20 13:31:01;;;;;;;;;;;16.50;53.10;;;;;;5072028;28;20381;-83
2024/02/20 13:33:27;;;;;;;;;;;17.20;53.40;;;;;;5070640;28;19920;-83
2024/02/20 13:35:52;;;;;;;;;;;17.40;51.90;;;;;;5067532;28;19962;-84
2024/02/20 13:38:18;;;;;;;;;;;17.30;51.50;;;;;;5067075;28;20288;-84
2024/02/20 13:40:43;;;;;;;;;;;17.20;51.80;;;;;;5072152;28;19915;-83
2024/02/20 13:43:09;;;;;;;;;;;16.40;51.30;;;;;;5070806;28;19908;-84
2024/02/20 13:45:45;;;;;;;;;;;16.00;52.70;;;;;;5070580;28;20300;-83
2024/02/20 13:48:12;;;;;;;;;;;16.00;54.60;;;;;;5065544;28;19908;-83
2024/02/20 13:50:38;;;;;;;;;;;15.60;53.20;;;;;;5069672;28;19915;-82
2024/02/20 13:53:03;;;;;;;;;;;15.40;53.80;;;;;;5070821;28;19999;-82
2024/02/20 13:55:29;;;;;;;;;;;15.20;53.40;;;;;;5068138;28;20266;-81
2024/02/20 13:57:54;;;;;;;;;;;15.30;54.20;;;;;;5062899;28;19916;-82
2024/02/20 14:00:20;;;;;;;;;;;15.60;54.50;;;;;;5071606;28;19909;-82
2024/02/20 14:02:45;;;;;;;;;;;16.10;53.40;;;;;;5071958;28;19931;-81
2024/02/20 14:05:11;;;;;;;;;;;16.00;52.50;;;;;;5069597;28;20389;-80
2024/02/20 14:07:36;;;;;;;;;;;15.90;53.00;;;;;;5059793;28;19915;-81
2024/02/20 14:10:03;;;;;;;;;;;15.80;51.90;;;;;;5067790;28;19929;-84
2024/02/20 14:12:28;;;;;;;;;;;15.20;51.50;;;;;;5071679;28;19915;-83
2024/02/20 14:14:54;;;;;;;;;;;15.10;52.50;;;;;;5070753;28;19921;-86
2024/02/20 14:17:20;;;;;;;;;;;14.80;53.50;;;;;;5058318;28;20309;-83
2024/02/20 14:19:45;;;;;;;;;;;14.70;53.10;;;;;;5069479;28;20290;-83